Time;durP1;ratioP1;P1;durP2;ratioP2;P2;SDS_P1;SDS_P2;PMS_P1;PMS_P2;Temp;Humidity;BMP_temperature;BMP_pressure;BME280_temperature;BME280_humidity;BME280_pressure;Samples;Min_cycle;Max_cycle;Signal;HPM_P1;HPM_P2
2023/04/02 00:01:00;;;;;;;1.80;1.20;;;12.30;38.60;;;;;;5011857;28;20408;-72
2023/04/02 00:03:44;;;;;;;1.80;1.10;;;11.80;39.30;;;;;;5009512;28;20443;-71
2023/04/02 00:06:33;;;;;;;1.90;1.20;;;13.80;41.40;;;;;;5010713;28;20440;-71
2023/04/02 00:09:03;;;;;;;1.80;1.13;;;12.10;39.20;;;;;;5003723;28;20451;-73
2023/04/02 00:11:33;;;;;;;1.80;1.10;;;11.90;39.10;;;;;;5010002;28;20456;-70
2023/04/02 00:14:15;;;;;;;2.10;1.40;;;12.10;38.90;;;;;;5008018;28;20448;-74
2023/04/02 00:16:41;;;;;;;1.90;1.20;;;11.50;39.70;;;;;;5011270;28;20420;-72
2023/04/02 00:19:12;;;;;;;1.93;1.27;;;12.00;40.10;;;;;;5010931;28;20474;-71
2023/04/02 00:21:40;;;;;;;1.80;1.10;;;11.30;40.90;;;;;;5008813;28;20179;-71
2023/04/02 00:24:18;;;;;;;2.00;1.23;;;11.60;41.10;;;;;;4992507;28;20963;-74
2023/04/02 00:26:47;;;;;;;1.80;1.10;;;11.50;40.70;;;;;;5009123;28;20602;-72
2023/04/02 00:29:14;;;;;;;2.10;1.43;;;11.50;41.10;;;;;;5009339;28;20487;-71
2023/04/02 00:31:46;;;;;;;1.90;1.27;;;11.50;41.00;;;;;;5008112;28;20464;-70
2023/04/02 00:34:31;;;;;;;1.90;1.20;;;11.70;40.70;;;;;;4991674;28;20796;-70
2023/04/02 00:36:58;;;;;;;1.90;1.20;;;11.20;42.30;;;;;;5006537;28;20919;-71
2023/04/02 00:39:26;;;;;;;1.80;1.20;;;11.50;41.30;;;;;;5010331;28;20547;-70
2023/04/02 00:42:06;;;;;;;1.90;1.30;;;11.30;42.00;;;;;;5009155;28;20448;-71
2023/04/02 00:44:41;;;;;;;2.00;1.30;;;11.50;41.70;;;;;;5010588;28;20475;-71
2023/04/02 00:47:11;;;;;;;1.80;1.20;;;11.80;40.30;;;;;;5008983;28;20797;-71
2023/04/02 00:49:39;;;;;;;1.90;1.30;;;11.40;42.50;;;;;;5011206;28;20404;-71
2023/04/02 00:52:09;;;;;;;1.90;1.30;;;12.00;41.60;;;;;;5009640;28;20963;-72
2023/04/02 00:54:47;;;;;;;1.80;1.10;;;11.80;40.60;;;;;;5010214;28;20803;-71
2023/04/02 00:57:22;;;;;;;1.80;1.20;;;12.30;41.20;;;;;;5008920;28;20449;-71
2023/04/02 00:59:54;;;;;;;1.80;1.10;;;12.10;40.00;;;;;;5009815;28;20434;-71
2023/04/02 01:02:26;;;;;;;1.80;1.20;;;12.40;40.60;;;;;;5011383;28;20912;-72
2023/04/02 01:05:01;;;;;;;1.90;1.20;;;12.00;40.00;;;;;;5009982;28;20462;-71
2023/04/02 01:08:01;;;;;;;1.90;1.20;;;12.40;40.70;;;;;;5009650;28;20522;-70
2023/04/02 01:10:43;;;;;;;1.80;1.10;;;12.00;40.30;;;;;;5008737;28;20648;-71
2023/04/02 01:13:38;;;;;;;1.90;1.20;;;12.10;40.70;;;;;;5010807;28;20928;-71
2023/04/02 01:16:03;;;;;;;1.80;1.10;;;12.50;40.70;;;;;;5010016;28;20424;-71
2023/04/02 01:18:34;;;;;;;2.00;1.30;;;12.30;40.20;;;;;;5008637;28;20184;-70
2023/04/02 01:21:11;;;;;;;2.00;1.30;;;12.10;39.70;;;;;;5009750;28;20599;-70
2023/04/02 01:23:43;;;;;;;1.90;1.20;;;11.80;40.40;;;;;;5010090;28;20862;-71
2023/04/02 01:26:32;;;;;;;1.90;1.20;;;12.00;41.00;;;;;;5009131;28;20185;-72
2023/04/02 01:29:17;;;;;;;1.92;1.20;;;11.80;40.50;;;;;;5009426;28;20184;-73
2023/04/02 01:31:44;;;;;;;2.00;1.23;;;12.10;40.60;;;;;;5005233;28;20211;-71
2023/04/02 01:34:14;;;;;;;1.90;1.20;;;11.50;41.70;;;;;;5008019;28;20497;-70
2023/04/02 01:37:00;;;;;;;1.90;1.20;;;11.20;43.00;;;;;;5011336;28;20248;-71
2023/04/02 01:39:25;;;;;;;1.90;1.20;;;11.40;42.40;;;;;;5008157;28;20784;-71
2023/04/02 01:42:05;;;;;;;1.90;1.23;;;11.50;42.60;;;;;;5009650;28;20183;-70
2023/04/02 01:44:52;;;;;;;2.00;1.23;;;11.40;43.00;;;;;;5008182;28;20370;-71
2023/04/02 01:47:22;;;;;;;1.90;1.20;;;11.70;42.40;;;;;;5013225;28;20187;-71
2023/04/02 01:49:47;;;;;;;2.00;1.20;;;11.70;42.10;;;;;;5010442;28;20177;-71
2023/04/02 01:52:24;;;;;;;1.80;1.10;;;11.70;41.70;;;;;;5012949;28;20212;-71
2023/04/02 01:54:51;;;;;;;2.00;1.30;;;11.80;42.40;;;;;;5005805;28;20188;-70
2023/04/02 01:57:17;;;;;;;1.80;1.15;;;11.80;42.70;;;;;;5013306;28;20550;-71
2023/04/02 01:59:44;;;;;;;1.83;1.20;;;11.60;43.60;;;;;;5010783;28;20192;-71
2023/04/02 02:02:13;;;;;;;1.88;1.27;;;11.50;44.00;;;;;;5013321;28;20851;-71
2023/04/02 02:04:40;;;;;;;2.40;1.83;;;11.50;44.50;;;;;;5011068;28;20263;-71
2023/04/02 02:07:13;;;;;;;1.80;1.10;;;11.50;44.30;;;;;;5014322;28;20599;-73
2023/04/02 02:09:39;;;;;;;1.80;1.20;;;11.70;44.10;;;;;;5011822;28;20192;-71
2023/04/02 02:12:05;;;;;;;1.80;1.20;;;11.90;43.30;;;;;;5012715;28;20530;-71
2023/04/02 02:14:31;;;;;;;1.87;1.23;;;11.80;43.90;;;;;;5011576;28;20251;-71
2023/04/02 02:17:01;;;;;;;1.80;1.20;;;12.00;43.20;;;;;;5013487;28;20205;-72
2023/04/02 02:19:40;;;;;;;2.00;1.30;;;12.40;44.00;;;;;;5014094;28;20435;-71
2023/04/02 02:22:27;;;;;;;1.80;1.20;;;12.00;42.30;;;;;;5011506;28;20225;-71
2023/04/02 02:24:58;;;;;;;1.90;1.20;;;12.00;42.70;;;;;;5007314;28;20296;-71
2023/04/02 02:27:37;;;;;;;1.80;1.20;;;12.00;42.70;;;;;;5004067;28;20950;-71
2023/04/02 02:30:14;;;;;;;1.70;1.10;;;12.00;43.20;;;;;;5013707;28;20857;-70
2023/04/02 02:32:52;;;;;;;1.90;1.40;;;11.80;43.20;;;;;;5005953;28;20240;-71
2023/04/02 02:35:23;;;;;;;1.73;1.15;;;11.90;43.70;;;;;;5010450;28;20451;-70
2023/04/02 02:38:00;;;;;;;1.80;1.10;;;11.90;43.60;;;;;;5013492;28;20235;-72
2023/04/02 02:40:33;;;;;;;1.80;1.20;;;11.90;43.70;;;;;;5013604;28;20397;-71
2023/04/02 02:43:01;;;;;;;1.90;1.30;;;12.50;44.10;;;;;;5009778;28;20190;-71
2023/04/02 02:45:34;;;;;;;1.90;1.20;;;12.00;43.50;;;;;;5012497;28;20591;-71
2023/04/02 02:48:01;;;;;;;2.00;1.37;;;11.90;44.00;;;;;;5011215;28;20181;-72
2023/04/02 02:50:30;;;;;;;1.80;1.10;;;12.20;44.20;;;;;;5011226;28;20411;-71
2023/04/02 02:53:04;;;;;;;1.90;1.27;;;12.10;44.20;;;;;;5010911;28;20249;-71
2023/04/02 02:55:33;;;;;;;1.80;1.20;;;12.10;43.70;;;;;;5010201;28;20463;-71
2023/04/02 02:58:09;;;;;;;1.77;1.20;;;12.10;42.70;;;;;;5012062;28;20181;-71
2023/04/02 03:00:36;;;;;;;1.80;1.17;;;12.10;43.40;;;;;;5005034;28;20507;-71
2023/04/02 03:03:06;;;;;;;1.70;1.10;;;12.10;43.70;;;;;;5009942;28;20444;-71
2023/04/02 03:05:33;;;;;;;1.80;1.13;;;12.20;43.10;;;;;;5002577;28;20809;-72
2023/04/02 03:08:02;;;;;;;1.80;1.20;;;12.30;42.60;;;;;;5007216;28;20418;-71
2023/04/02 03:10:32;;;;;;;1.77;1.17;;;12.10;43.10;;;;;;5012953;28;20455;-71
2023/04/02 03:13:07;;;;;;;1.87;1.20;;;12.20;43.10;;;;;;5011048;28;20450;-71
2023/04/02 03:16:01;;;;;;;1.90;1.30;;;12.20;42.90;;;;;;5008513;28;20514;-71
2023/04/02 03:18:50;;;;;;;1.80;1.23;;;12.40;42.90;;;;;;5011601;28;20483;-71
2023/04/02 03:21:38;;;;;;;1.77;1.20;;;12.40;41.40;;;;;;5009260;28;20411;-71
2023/04/02 03:24:16;;;;;;;1.83;1.27;;;12.20;42.60;;;;;;5009271;28;20513;-72
2023/04/02 03:26:54;;;;;;;1.80;1.20;;;11.70;41.70;;;;;;5010749;28;20429;-71
2023/04/02 03:29:25;;;;;;;1.80;1.20;;;12.10;42.40;;;;;;5012847;28;20764;-71
2023/04/02 03:31:59;;;;;;;1.70;1.17;;;12.60;41.80;;;;;;5012388;28;20943;-70
2023/04/02 03:34:46;;;;;;;1.80;1.20;;;12.30;40.10;;;;;;5009743;28;20455;-72
2023/04/02 03:37:21;;;;;;;1.83;1.30;;;12.90;39.40;;;;;;5008888;28;20436;-70
2023/04/02 03:39:59;;;;;;;1.70;1.10;;;12.70;39.00;;;;;;5005553;28;20494;-71
2023/04/02 03:42:28;;;;;;;1.80;1.20;;;12.70;40.00;;;;;;5012058;28;20425;-71
2023/04/02 03:45:14;;;;;;;1.80;1.23;;;12.50;39.50;;;;;;5010335;28;20523;-71
2023/04/02 03:47:59;;;;;;;1.80;1.30;;;13.70;42.10;;;;;;5010391;28;20522;-71
2023/04/02 03:50:37;;;;;;;1.80;1.20;;;12.60;39.50;;;;;;5010783;28;20439;-71
2023/04/02 03:53:04;;;;;;;1.80;1.20;;;12.60;39.40;;;;;;5011712;28;20412;-70
2023/04/02 03:55:34;;;;;;;1.80;1.20;;;12.70;40.00;;;;;;5010867;28;20451;-71
2023/04/02 03:58:17;;;;;;;1.80;1.20;;;12.90;40.90;;;;;;5008585;28;20444;-71
2023/04/02 04:01:04;;;;;;;1.70;1.10;;;12.90;40.30;;;;;;5012075;28;20461;-71
2023/04/02 04:04:09;;;;;;;1.70;1.10;;;12.80;40.70;;;;;;5010909;28;20426;-71
2023/04/02 04:06:40;;;;;;;1.80;1.20;;;12.70;40.90;;;;;;5010019;28;20442;-70
2023/04/02 04:09:10;;;;;;;1.80;1.20;;;12.80;42.20;;;;;;5009141;28;21013;-71
2023/04/02 04:11:47;;;;;;;1.90;1.27;;;13.20;41.00;;;;;;5010338;28;20547;-72
2023/04/02 04:14:16;;;;;;;1.80;1.20;;;13.10;41.70;;;;;;5010056;28;20461;-71
2023/04/02 04:17:03;;;;;;;1.80;1.20;;;13.00;41.30;;;;;;5003353;28;20419;-71
2023/04/02 04:19:44;;;;;;;1.80;1.20;;;13.10;40.40;;;;;;5008812;28;20436;-71
2023/04/02 04:22:31;;;;;;;1.93;1.40;;;13.20;42.00;;;;;;5007412;28;20413;-71
2023/04/02 04:24:59;;;;;;;1.77;1.20;;;13.00;42.10;;;;;;5009183;28;20451;-71
2023/04/02 04:27:47;;;;;;;1.70;1.10;;;13.00;41.80;;;;;;5011771;28;20790;-70
2023/04/02 04:30:23;;;;;;;1.80;1.30;;;12.90;43.20;;;;;;5008930;28;20970;-71
2023/04/02 04:33:21;;;;;;;1.70;1.20;;;13.10;43.00;;;;;;5011333;28;20517;-71
2023/04/02 04:36:01;;;;;;;1.77;1.20;;;13.30;42.10;;;;;;4997922;28;20452;-71
2023/04/02 04:38:34;;;;;;;1.70;1.13;;;13.00;43.90;;;;;;5009520;28;20412;-71
2023/04/02 04:41:13;;;;;;;1.70;1.20;;;13.10;43.70;;;;;;5008656;28;20530;-71
2023/04/02 04:44:06;;;;;;;1.80;1.20;;;13.10;43.40;;;;;;5010768;28;20427;-71
2023/04/02 04:46:41;;;;;;;1.70;1.20;;;13.00;42.20;;;;;;5007603;28;20966;-71
2023/04/02 04:49:16;;;;;;;1.90;1.30;;;13.10;41.50;;;;;;5011000;28;20396;-72
2023/04/02 04:52:19;;;;;;;1.90;1.40;;;13.10;41.90;;;;;;5009796;28;20593;-71
2023/04/02 04:54:44;;;;;;;2.07;1.30;;;12.70;43.60;;;;;;5002662;28;20961;-71
2023/04/02 04:57:29;;;;;;;1.80;1.20;;;12.70;43.00;;;;;;5009583;28;20428;-71
2023/04/02 05:00:11;;;;;;;1.80;1.20;;;12.80;44.40;;;;;;5011066;28;20172;-70
2023/04/02 05:02:56;;;;;;;1.80;1.20;;;13.00;43.50;;;;;;5009049;28;20518;-71
2023/04/02 05:05:28;;;;;;;1.80;1.20;;;12.90;43.60;;;;;;5010379;28;20994;-71
2023/04/02 05:08:31;;;;;;;1.70;1.20;;;13.00;43.30;;;;;;5011060;28;20436;-72
2023/04/02 05:11:02;;;;;;;1.80;1.20;;;12.60;43.40;;;;;;5007201;28;21794;-72
2023/04/02 05:13:41;;;;;;;1.70;1.10;;;12.80;44.20;;;;;;5005789;28;20468;-71
2023/04/02 05:16:34;;;;;;;1.70;1.20;;;12.70;44.20;;;;;;5010036;28;20850;-72
2023/04/02 05:19:27;;;;;;;1.70;1.10;;;12.80;41.10;;;;;;5012497;28;20560;-71
2023/04/02 05:22:11;;;;;;;1.80;1.20;;;12.60;41.50;;;;;;5014195;28;20432;-70
2023/04/02 05:25:18;;;;;;;1.80;1.30;;;12.40;43.20;;;;;;5013484;28;20955;-71
2023/04/02 05:27:51;;;;;;;1.73;1.20;;;12.40;43.80;;;;;;5012848;28;20435;-71
2023/04/02 05:30:22;;;;;;;1.70;1.20;;;12.80;45.10;;;;;;5013552;28;20436;-71
2023/04/02 05:32:58;;;;;;;1.77;1.20;;;12.60;44.10;;;;;;5013332;28;20610;-71
2023/04/02 05:35:33;;;;;;;1.70;1.20;;;12.80;44.30;;;;;;5013515;28;20973;-71
2023/04/02 05:38:00;;;;;;;1.80;1.27;;;12.90;43.50;;;;;;5009216;28;20464;-71
2023/04/02 05:40:42;;;;;;;1.80;1.20;;;12.90;42.80;;;;;;5005715;28;20440;-70
2023/04/02 05:43:12;;;;;;;1.70;1.17;;;13.00;42.90;;;;;;5010999;28;20431;-72
2023/04/02 05:45:41;;;;;;;1.70;1.10;;;12.90;44.20;;;;;;5014082;28;20452;-71
2023/04/02 05:48:18;;;;;;;1.80;1.23;;;13.00;45.80;;;;;;5011626;28;20527;-71
2023/04/02 05:50:50;;;;;;;1.80;1.20;;;13.10;45.70;;;;;;5004369;28;20471;-72
2023/04/02 05:53:26;;;;;;;1.80;1.30;;;13.10;45.40;;;;;;5012543;28;20424;-74
2023/04/02 05:56:06;;;;;;;1.90;1.40;;;13.20;45.30;;;;;;5010402;28;20787;-72
2023/04/02 05:58:50;;;;;;;1.70;1.10;;;13.20;44.10;;;;;;5005350;28;20440;-71
2023/04/02 06:01:37;;;;;;;1.70;1.10;;;13.30;43.40;;;;;;5011236;28;20439;-71
2023/04/02 06:04:22;;;;;;;1.80;1.27;;;13.30;44.70;;;;;;5010923;28;20463;-71
2023/04/02 06:07:12;;;;;;;1.70;1.10;;;13.20;46.20;;;;;;5004661;28;20442;-71
2023/04/02 06:09:44;;;;;;;1.77;1.20;;;13.20;47.00;;;;;;5013249;28;20523;-71
2023/04/02 06:12:36;;;;;;;1.70;1.20;;;13.10;47.30;;;;;;5010492;28;20971;-71
2023/04/02 06:15:02;;;;;;;1.70;1.10;;;13.20;47.40;;;;;;5002366;28;20778;-71
2023/04/02 06:17:28;;;;;;;1.70;1.10;;;13.10;46.50;;;;;;4994441;28;20417;-71
2023/04/02 06:19:56;;;;;;;1.70;1.20;;;13.20;45.90;;;;;;5009473;28;20432;-71
2023/04/02 06:22:43;;;;;;;1.70;1.10;;;13.50;46.20;;;;;;5011961;28;20443;-71
2023/04/02 06:25:32;;;;;;;2.40;1.27;;;12.80;44.70;;;;;;5012558;28;20523;-71
2023/04/02 06:28:02;;;;;;;1.77;1.30;;;13.40;44.50;;;;;;5008513;28;20446;-70
2023/04/02 06:30:35;;;;;;;1.60;1.10;;;13.50;44.20;;;;;;5010854;28;20474;-71
2023/04/02 06:33:02;;;;;;;1.90;1.40;;;13.70;44.80;;;;;;5005748;28;20456;-73
2023/04/02 06:35:28;;;;;;;1.90;1.30;;;13.70;41.90;;;;;;5012095;28;20463;-71
2023/04/02 06:37:57;;;;;;;2.03;1.50;;;13.80;42.30;;;;;;5013452;28;20504;-71
2023/04/02 06:40:58;;;;;;;1.80;1.10;;;13.70;44.00;;;;;;5011960;28;20166;-71
2023/04/02 06:43:44;;;;;;;1.80;1.20;;;13.50;45.10;;;;;;5002325;28;20424;-74
2023/04/02 06:46:20;;;;;;;1.80;1.20;;;13.60;44.80;;;;;;5007091;28;20459;-70
2023/04/02 06:48:50;;;;;;;1.70;1.10;;;13.60;45.40;;;;;;5006038;28;20405;-71
2023/04/02 06:51:19;;;;;;;1.80;1.27;;;13.70;45.60;;;;;;5012432;28;20853;-72
2023/04/02 06:53:47;;;;;;;1.70;1.10;;;13.70;44.70;;;;;;5007149;28;20424;-71
2023/04/02 06:56:36;;;;;;;1.73;1.13;;;13.80;44.40;;;;;;5004006;28;20465;-71
2023/04/02 06:59:06;;;;;;;1.80;1.30;;;14.00;41.90;;;;;;5013360;28;20396;-71
2023/04/02 07:01:47;;;;;;;1.90;1.30;;;14.10;42.00;;;;;;5012392;28;20438;-71
2023/04/02 07:04:14;;;;;;;1.80;1.20;;;14.10;39.90;;;;;;5011878;28;20535;-71
2023/04/02 07:06:39;;;;;;;1.90;1.20;;;14.20;40.20;;;;;;5008460;28;20448;-71
2023/04/02 07:09:06;;;;;;;1.80;1.20;;;14.50;39.50;;;;;;5012933;28;20940;-71
2023/04/02 07:11:31;;;;;;;2.10;1.50;;;14.60;40.80;;;;;;5011423;28;20209;-71
2023/04/02 07:13:57;;;;;;;1.80;1.20;;;14.60;40.20;;;;;;5010144;28;20532;-70
2023/04/02 07:16:25;;;;;;;1.90;1.20;;;14.60;39.80;;;;;;5005661;28;20205;-71
2023/04/02 07:18:54;;;;;;;1.70;1.10;;;14.70;39.00;;;;;;5012001;28;20252;-71
2023/04/02 07:21:20;;;;;;;1.93;1.30;;;14.30;40.30;;;;;;5003645;28;20467;-71
2023/04/02 07:23:45;;;;;;;1.80;1.20;;;14.60;39.50;;;;;;5012415;28;20431;-71
2023/04/02 07:26:21;;;;;;;1.87;1.20;;;14.60;39.50;;;;;;5010386;28;20438;-71
2023/04/02 07:28:47;;;;;;;2.00;1.33;;;14.50;39.70;;;;;;5012608;28;20177;-72
2023/04/02 07:31:25;;;;;;;1.90;1.27;;;14.70;39.40;;;;;;5010243;28;20474;-72
2023/04/02 07:33:52;;;;;;;1.70;1.00;;;14.60;38.90;;;;;;5005370;28;20429;-71
2023/04/02 07:36:21;;;;;;;1.90;1.20;;;14.70;38.80;;;;;;5010927;28;20526;-75
2023/04/02 07:38:46;;;;;;;2.27;1.30;;;15.00;36.20;;;;;;5011378;28;20432;-71
2023/04/02 07:41:13;;;;;;;1.77;1.10;;;15.40;34.30;;;;;;5002484;28;20431;-71
2023/04/02 07:43:40;;;;;;;1.90;1.23;;;15.30;34.80;;;;;;5008911;28;20181;-71
2023/04/02 07:46:06;;;;;;;2.00;1.40;;;15.10;35.50;;;;;;5009910;28;20517;-71
2023/04/02 07:48:32;;;;;;;2.50;1.60;;;14.80;36.90;;;;;;5011415;28;20415;-71
2023/04/02 07:50:59;;;;;;;2.00;1.30;;;14.70;37.30;;;;;;5004892;28;20494;-71
2023/04/02 07:53:33;;;;;;;1.83;1.20;;;13.80;37.30;;;;;;5009491;28;20238;-71
2023/04/02 07:56:01;;;;;;;1.97;1.30;;;14.00;38.50;;;;;;5012102;28;20405;-71
2023/04/02 07:58:28;;;;;;;1.87;1.20;;;14.30;38.10;;;;;;5011255;28;20946;-71
2023/04/02 08:00:54;;;;;;;1.80;1.20;;;17.10;38.20;;;;;;5008109;28;21017;-71
2023/04/02 08:03:20;;;;;;;1.90;1.20;;;15.00;35.40;;;;;;5006887;28;20435;-70
2023/04/02 08:05:57;;;;;;;2.03;1.40;;;14.80;35.00;;;;;;5011618;28;20200;-71
2023/04/02 08:08:23;;;;;;;1.77;1.20;;;15.10;33.30;;;;;;5011413;28;21090;-74
2023/04/02 08:10:49;;;;;;;1.90;1.30;;;14.50;34.50;;;;;;5009583;28;20785;-71
2023/04/02 08:13:16;;;;;;;1.90;1.20;;;13.20;38.70;;;;;;5009618;28;20432;-71
2023/04/02 08:15:43;;;;;;;1.80;1.23;;;13.10;38.90;;;;;;5008669;28;20451;-71
2023/04/02 08:18:09;;;;;;;1.90;1.23;;;13.10;38.40;;;;;;5013592;28;20439;-72
2023/04/02 08:20:35;;;;;;;1.90;1.30;;;13.00;37.90;;;;;;5009022;28;20435;-71
2023/04/02 08:23:01;;;;;;;1.90;1.20;;;13.20;39.60;;;;;;5005679;28;20764;-73
2023/04/02 08:25:27;;;;;;;1.80;1.20;;;13.30;38.00;;;;;;5009352;28;20253;-73
2023/04/02 08:27:53;;;;;;;1.93;1.33;;;13.20;36.70;;;;;;5006093;28;20502;-73
2023/04/02 08:30:19;;;;;;;1.80;1.10;;;13.20;38.00;;;;;;5004201;28;20444;-73
2023/04/02 08:32:45;;;;;;;1.90;1.27;;;13.80;35.90;;;;;;5007462;28;20769;-73
2023/04/02 08:35:13;;;;;;;1.80;1.10;;;14.00;35.30;;;;;;5009463;28;20451;-73
2023/04/02 08:37:40;;;;;;;1.97;1.33;;;14.20;34.20;;;;;;5005157;28;20180;-73
2023/04/02 08:40:07;;;;;;;1.80;1.20;;;14.10;34.70;;;;;;5011276;28;20931;-73
2023/04/02 08:42:32;;;;;;;1.90;1.33;;;13.90;35.40;;;;;;5009155;28;20437;-73
2023/04/02 08:45:25;;;;;;;1.80;1.20;;;13.70;36.10;;;;;;5009468;28;20482;-73
2023/04/02 08:47:54;;;;;;;1.80;1.20;;;14.20;34.10;;;;;;5002922;28;20644;-73
2023/04/02 08:50:31;;;;;;;1.80;1.20;;;13.60;35.70;;;;;;5010499;28;20435;-72
2023/04/02 08:52:58;;;;;;;1.90;1.30;;;13.00;37.10;;;;;;5009018;28;21000;-73
2023/04/02 08:55:58;;;;;;;1.80;1.20;;;13.30;38.60;;;;;;5006214;28;20490;-72
2023/04/02 08:58:42;;;;;;;1.80;1.20;;;13.50;37.20;;;;;;5015261;28;20409;-75
2023/04/02 09:01:24;;;;;;;1.80;1.10;;;14.20;35.70;;;;;;5015064;28;20457;-72
2023/04/02 09:03:52;;;;;;;1.90;1.30;;;13.70;35.80;;;;;;5012672;28;20461;-72
2023/04/02 09:06:20;;;;;;;1.80;1.20;;;13.30;36.70;;;;;;5011780;28;20461;-72
2023/04/02 09:08:47;;;;;;;1.70;1.17;;;13.50;37.20;;;;;;5013241;28;20887;-72
2023/04/02 09:11:22;;;;;;;1.90;1.33;;;13.70;35.80;;;;;;5013735;28;20463;-73
2023/04/02 09:13:53;;;;;;;1.90;1.30;;;13.70;35.80;;;;;;5006447;28;20944;-73
2023/04/02 09:16:21;;;;;;;1.90;1.33;;;13.60;37.00;;;;;;5010533;28;20443;-73
2023/04/02 09:18:50;;;;;;;2.00;1.40;;;13.80;37.00;;;;;;5011366;28;20432;-73
2023/04/02 09:21:31;;;;;;;2.20;1.43;;;13.30;37.20;;;;;;5007131;28;20447;-73
2023/04/02 09:23:57;;;;;;;1.90;1.30;;;14.10;35.50;;;;;;5008895;28;20435;-73
2023/04/02 09:26:26;;;;;;;1.80;1.20;;;14.60;34.50;;;;;;5014569;28;20990;-73
2023/04/02 09:29:00;;;;;;;1.80;1.17;;;14.90;33.30;;;;;;5012662;28;20190;-74
2023/04/02 09:32:21;;;;;;;1.80;1.20;;;15.20;32.50;;;;;;5013771;28;20818;-80
2023/04/02 09:34:47;;;;;;;2.00;1.40;;;14.60;34.20;;;;;;4907532;29;21042;-76
2023/04/02 09:37:24;;;;;;;1.80;1.20;;;14.80;33.00;;;;;;4902943;29;20519;-76
2023/04/02 09:39:50;;;;;;;2.10;1.40;;;15.20;32.00;;;;;;4914270;29;20192;-74
2023/04/02 09:42:36;;;;;;;2.00;1.30;;;15.00;33.10;;;;;;4907895;29;20501;-74
2023/04/02 09:45:18;;;;;;;2.00;1.30;;;15.00;33.20;;;;;;4915055;29;20960;-75
2023/04/02 09:47:43;;;;;;;1.90;1.27;;;14.40;34.00;;;;;;4914472;29;20580;-73
2023/04/02 09:50:22;;;;;;;1.90;1.30;;;13.80;35.90;;;;;;4908328;29;20571;-74
2023/04/02 09:52:48;;;;;;;1.90;1.30;;;13.80;35.90;;;;;;4903370;29;20214;-74
2023/04/02 09:55:17;;;;;;;1.90;1.20;;;14.00;36.60;;;;;;4914751;29;20456;-75
2023/04/02 09:57:44;;;;;;;1.90;1.30;;;14.10;35.10;;;;;;4907452;29;20882;-73
2023/04/02 10:00:26;;;;;;;1.90;1.20;;;14.00;36.10;;;;;;4907895;29;20493;-74
2023/04/02 10:03:22;;;;;;;2.00;1.40;;;14.00;35.40;;;;;;4906674;29;20977;-75
2023/04/02 10:05:48;;;;;;;1.83;1.20;;;14.60;34.20;;;;;;4895128;29;20538;-75
2023/04/02 10:08:26;;;;;;;2.00;1.33;;;14.90;34.20;;;;;;4897691;29;20532;-74
2023/04/02 10:10:56;;;;;;;2.20;1.40;;;14.70;33.60;;;;;;4950164;28;20802;-74
2023/04/02 10:13:34;;;;;;;2.00;1.43;;;14.70;34.80;;;;;;5010993;28;20794;-74
2023/04/02 10:16:18;;;;;;;2.00;1.30;;;14.30;35.40;;;;;;5013541;28;20936;-73
2023/04/02 10:19:12;;;;;;;1.80;1.13;;;14.80;34.20;;;;;;5013381;28;20436;-72
2023/04/02 10:21:40;;;;;;;2.00;1.30;;;14.80;33.60;;;;;;5012298;28;20519;-71
2023/04/02 10:24:14;;;;;;;1.93;1.23;;;14.60;33.60;;;;;;5013498;28;20515;-70
2023/04/02 10:26:49;;;;;;;2.07;1.40;;;14.70;33.90;;;;;;5005922;28;20784;-71
2023/04/02 10:29:26;;;;;;;1.90;1.30;;;14.40;34.30;;;;;;5011774;28;20440;-71
2023/04/02 10:32:10;;;;;;;2.73;1.53;;;14.70;33.00;;;;;;5013772;28;20530;-71
2023/04/02 10:35:01;;;;;;;1.97;1.30;;;14.50;34.80;;;;;;5012505;28;21038;-72
2023/04/02 10:37:35;;;;;;;1.83;1.30;;;14.10;34.10;;;;;;5011188;28;20439;-71
2023/04/02 10:40:30;;;;;;;1.90;1.30;;;14.20;33.90;;;;;;5008330;28;20428;-70
2023/04/02 10:43:05;;;;;;;1.90;1.30;;;14.80;34.70;;;;;;5003622;28;20771;-71
2023/04/02 10:45:51;;;;;;;1.97;1.30;;;15.60;31.90;;;;;;5011236;28;20901;-70
2023/04/02 10:49:00;;;;;;;1.90;1.20;;;15.50;32.80;;;;;;5010128;28;20430;-74
2023/04/02 10:51:54;;;;;;;1.90;1.27;;;14.70;33.30;;;;;;5007103;28;20460;-71
2023/04/02 10:54:20;;;;;;;2.00;1.33;;;14.30;33.50;;;;;;5011004;28;20459;-71
2023/04/02 10:56:47;;;;;;;1.80;1.10;;;14.30;34.30;;;;;;5009880;28;20978;-71
2023/04/02 10:59:31;;;;;;;2.00;1.30;;;14.50;33.70;;;;;;5010280;28;20522;-71
2023/04/02 11:02:00;;;;;;;2.00;1.40;;;16.00;33.00;;;;;;5003494;28;20795;-72
2023/04/02 11:04:41;;;;;;;2.00;1.20;;;16.60;29.90;;;;;;5012652;28;20551;-72
2023/04/02 11:07:16;;;;;;;2.10;1.30;;;16.90;29.10;;;;;;5012186;28;20429;-71
2023/04/02 11:09:45;;;;;;;2.30;1.40;;;17.40;29.10;;;;;;5011895;28;20514;-72
2023/04/02 11:12:20;;;;;;;2.30;1.30;;;16.40;29.90;;;;;;5012485;28;20463;-72
2023/04/02 11:14:47;;;;;;;2.20;1.20;;;16.40;30.10;;;;;;5011341;28;20454;-72
2023/04/02 11:17:15;;;;;;;2.37;1.33;;;16.60;30.00;;;;;;5010328;28;20948;-72
2023/04/02 11:19:40;;;;;;;2.30;1.30;;;16.60;28.90;;;;;;5005756;28;20446;-73
2023/04/02 11:22:19;;;;;;;2.23;1.10;;;16.60;29.40;;;;;;5012530;28;20426;-72
2023/04/02 11:24:47;;;;;;;2.40;1.37;;;17.00;30.30;;;;;;5012320;28;20277;-72
2023/04/02 11:27:13;;;;;;;2.43;1.40;;;18.00;29.30;;;;;;5009723;28;20444;-73
2023/04/02 11:29:47;;;;;;;2.50;1.30;;;18.60;26.80;;;;;;5009412;28;20435;-73
2023/04/02 11:32:21;;;;;;;2.50;1.30;;;19.00;28.10;;;;;;5010985;28;20248;-73
2023/04/02 11:34:49;;;;;;;2.60;1.30;;;19.40;26.10;;;;;;5004754;28;20471;-74
2023/04/02 11:37:51;;;;;;;2.70;1.30;;;19.90;24.70;;;;;;5010313;28;20438;-73
2023/04/02 11:40:16;;;;;;;2.90;1.30;;;18.80;24.60;;;;;;4989847;28;20434;-72
2023/04/02 11:42:44;;;;;;;2.80;1.30;;;18.50;25.60;;;;;;4986937;28;21316;-72
2023/04/02 11:45:19;;;;;;;2.77;1.30;;;18.50;24.90;;;;;;4989450;28;20303;-73
2023/04/02 11:48:16;;;;;;;2.80;1.23;;;18.50;27.50;;;;;;4979808;28;20615;-72
2023/04/02 11:50:44;;;;;;;2.90;1.27;;;19.20;25.50;;;;;;4974509;28;20442;-72
2023/04/02 11:53:10;;;;;;;3.20;1.33;;;19.30;24.50;;;;;;4987384;28;20504;-72
2023/04/02 11:55:40;;;;;;;2.83;1.20;;;19.20;24.60;;;;;;4987276;28;20517;-73
2023/04/02 11:58:43;;;;;;;2.90;1.27;;;19.50;25.10;;;;;;4985244;28;20185;-72
2023/04/02 12:01:47;;;;;;;2.90;1.30;;;18.90;25.90;;;;;;4991655;28;20471;-72
2023/04/02 12:04:34;;;;;;;3.00;1.30;;;19.60;26.20;;;;;;4985341;28;20463;-73
2023/04/02 12:07:18;;;;;;;3.00;1.30;;;20.30;23.70;;;;;;4986484;28;21250;-73
2023/04/02 12:09:49;;;;;;;3.10;1.30;;;21.00;24.50;;;;;;4988105;28;20451;-73
2023/04/02 12:12:33;;;;;;;3.00;1.20;;;19.50;25.30;;;;;;4982051;28;20456;-76
2023/04/02 12:14:59;;;;;;;3.00;1.10;;;19.70;25.30;;;;;;5007261;28;20510;-74
2023/04/02 12:17:25;;;;;;;3.10;1.37;;;19.90;24.70;;;;;;5010153;28;20870;-73
2023/04/02 12:19:54;;;;;;;3.10;1.30;;;19.70;24.40;;;;;;5008616;28;20511;-74
2023/04/02 12:22:28;;;;;;;3.10;1.30;;;19.70;25.70;;;;;;5008888;28;20490;-73
2023/04/02 12:25:19;;;;;;;3.10;1.40;;;19.20;27.60;;;;;;5008769;28;20451;-74
2023/04/02 12:27:47;;;;;;;3.13;1.40;;;18.50;27.90;;;;;;4997691;28;20408;-74
2023/04/02 12:30:21;;;;;;;3.00;1.40;;;17.90;29.00;;;;;;5011628;28;20409;-73
2023/04/02 12:32:48;;;;;;;3.00;1.50;;;17.90;28.30;;;;;;5008695;28;20462;-73
2023/04/02 12:35:35;;;;;;;2.90;1.40;;;18.00;27.80;;;;;;5010675;28;20853;-73
2023/04/02 12:38:01;;;;;;;2.60;1.30;;;16.60;28.40;;;;;;5009194;28;20568;-73
2023/04/02 12:40:26;;;;;;;2.60;1.30;;;16.20;29.40;;;;;;5010645;28;20431;-73
2023/04/02 12:42:52;;;;;;;2.70;1.60;;;15.60;30.60;;;;;;5008404;28;20177;-73
2023/04/02 12:45:26;;;;;;;2.30;1.17;;;15.20;32.80;;;;;;5010098;28;20215;-73
2023/04/02 12:47:53;;;;;;;2.30;1.20;;;15.80;30.00;;;;;;5010823;28;20192;-73
2023/04/02 12:50:21;;;;;;;2.20;1.20;;;16.10;29.50;;;;;;5011686;28;20519;-73
2023/04/02 12:52:53;;;;;;;2.30;1.30;;;16.40;29.80;;;;;;5010414;28;20472;-73
2023/04/02 12:55:24;;;;;;;2.50;1.50;;;16.40;29.30;;;;;;5009060;28;20455;-73
2023/04/02 12:57:55;;;;;;;2.10;1.20;;;16.40;28.60;;;;;;5011391;28;20432;-73
2023/04/02 13:00:21;;;;;;;2.13;1.27;;;15.60;30.50;;;;;;5010409;28;20404;-73
2023/04/02 13:03:05;;;;;;;2.20;1.40;;;15.80;30.60;;;;;;5010039;28;20434;-73
2023/04/02 13:05:52;;;;;;;2.10;1.30;;;15.40;30.70;;;;;;5008788;28;20201;-73
2023/04/02 13:08:37;;;;;;;2.03;1.20;;;15.80;30.90;;;;;;5008570;28;20523;-73
2023/04/02 13:11:04;;;;;;;2.10;1.20;;;15.60;31.40;;;;;;5006606;28;20432;-73
2023/04/02 13:13:36;;;;;;;2.00;1.20;;;15.60;31.30;;;;;;5008478;28;20432;-73
2023/04/02 13:16:05;;;;;;;2.17;1.40;;;16.20;30.70;;;;;;5000735;28;20440;-73
2023/04/02 13:18:34;;;;;;;2.10;1.30;;;16.60;30.10;;;;;;5006835;28;20814;-73
2023/04/02 13:21:06;;;;;;;2.10;1.30;;;17.00;29.50;;;;;;5010208;28;20937;-73
2023/04/02 13:23:35;;;;;;;2.10;1.20;;;17.20;29.40;;;;;;5010731;28;20977;-73
2023/04/02 13:26:09;;;;;;;2.10;1.20;;;17.40;28.60;;;;;;5008536;28;20799;-73
2023/04/02 13:28:34;;;;;;;2.57;1.40;;;17.70;29.00;;;;;;5010929;28;20412;-73